• Join FlightAware (Why Join?)
  • Login
  • US Flag 
06:44PM EDT


 

Airport Tracker/Info


-or-


 

Live Flight TrackerFlight Track Log ✈ N717AN ✈ 04-Oct-2013 ✈ KJFK - EGLL / LHR

Flight Track Log - Related Links

Times and Time Zones

All times are in EDT time to prevent confusion due to time zone crossing. See the N717AN flight status page for this flight to view local times or setup timezone preferences in your user account.

Time Position Orientation Groundspeed Altitude Reporting Facility
EDT Latitude Longitude Course Direction KTS MPH feet Rate Location/Type
07:04PM 40.6430 -73.7690 217° Southwest 105 121  Level FlightAware
07:05PM 40.6290 -73.7800 211° Southwest 175 201 960 Level FlightAware
07:05PM 40.6190 -73.7880 211° Southwest 175 201 600 2,340 Climbing FlightAware
07:05PM 40.6060 -73.7980 210° Southwest 185 213 1,300 1,680 Climbing FlightAware
07:06PM 40.5930 -73.8070 208° Southwest 202 232 1,600 900 Climbing FlightAware
07:06PM 40.5880 -73.8080 189° South 212 244 1,600 720 Level FlightAware
07:06PM 40.5860 -73.8080 180° South 218 251 1,700 960 Climbing FlightAware
07:06PM 40.5590 -73.7890 152° Southeast 261 300 2,100 1,020 Climbing FlightAware
07:06PM 40.5530 -73.7800 131° Southeast 265 305 2,300 1,980 Climbing FlightAware
07:06PM 40.5430 -73.7570 120° Southeast 273 314 2,900 2,220 Climbing FlightAware
07:07PM 40.5360 -73.7390 117° Southeast 275 316 3,400 2,340 Climbing FlightAware
07:07PM 40.5250 -73.7090 116° Southeast 279 321 4,200 2,100 Climbing FlightAware
07:07PM 40.5150 -73.6840 118° Southeast 287 330 4,700 1,320 Climbing FlightAware
07:08PM 40.5040 -73.6540 116° Southeast 288 331 5,000 1,260 Climbing FlightAware
07:08PM 40.4910 -73.6210 117° Southeast 298 343 5,500 2,520 Climbing FlightAware
07:08PM 40.4790 -73.5910 118° Southeast 285 328 6,700 2,700 Climbing FlightAware
07:09PM 40.4640 -73.5520 117° Southeast 299 344 7,500 2,160 Climbing FlightAware
07:09PM 40.4590 -73.5320 108° East 299 344 8,000 2,220 Climbing FlightAware
07:09PM 40.4570 -73.5130 98° East 296 341 8,400 2,100 Climbing FlightAware
07:09PM 40.4620 -73.4680 82° East 302 348 9,300 2,340 Climbing FlightAware
07:10PM 40.4650 -73.4380 83° East 303 349 10,000 2,160 Climbing FlightAware
07:10PM 40.4590 -73.3980 101° East 310 357 10,800 1,680 Climbing FlightAware
07:11PM 40.4440 -73.2960 101° East 363 418 12,100 1,740 Climbing FlightAware
07:11PM 40.4341 -73.2392 103° East 386 444 12,900 2,400 Climbing FlightAware ADS-B (KSNC)
07:12PM 40.4155 -73.1379 104° East 409 471 14,800 2,460 Climbing FlightAware ADS-B (KSNC)
07:13PM 40.4024 -73.0639 103° East 427 491 16,300 2,280 Climbing FlightAware ADS-B (KSNC)
07:13PM 40.3910 -72.9797 100° East 436 502 17,200 2,760 Climbing FlightAware ADS-B (KSNC)
07:14PM 40.3997 -72.9102 81° East 429 494 18,700 2,640 Climbing FlightAware ADS-B (KSNC)
07:14PM 40.4147 -72.8314 76° East 438 504 19,800 1,920 Climbing FlightAware ADS-B (KSNC)
07:15PM 40.4355 -72.7535 71° East 455 524 20,700 1,980 Climbing FlightAware ADS-B (KSNC)
07:15PM 40.4543 -72.6714 73° East 464 534 22,000 2,160 Climbing FlightAware ADS-B (KSNC)
07:16PM 40.4820 -72.5663 71° East 472 543 23,400 1,920 Climbing FlightAware ADS-B (KSNC)
07:16PM 40.5038 -72.4521 76° East 483 556 24,500 1,860 Climbing FlightAware ADS-B (KSNC)
07:18PM 40.5410 -72.2770 74° East 492 566 26,600 1,920 Climbing FlightAware
07:18PM 40.5640 -72.1824 72° East 500 575 27,600 1,740 Climbing FlightAware ADS-B (KSNC)
07:19PM 40.5850 -72.0920 73° East 505 581 28,500 1,860 Climbing FlightAware
07:19PM 40.5978 -72.0322 74° East 506 582 29,400 1,620 Climbing FlightAware ADS-B (KSNC)
07:20PM 40.6360 -71.8560 74° East 516 594 30,700 1,740 Climbing FlightAware
07:21PM 40.6590 -71.7500 74° East 509 586 32,100 1,920 Climbing FlightAware
07:21PM 40.6850 -71.6310 74° East 508 585 33,100 660 Climbing FlightAware
07:22PM 40.7100 -71.5130 74° East 508 585 33,000 -120 Descending FlightAware
07:22PM 40.7300 -71.4150 75° East 508 585 33,000  Level FlightAware
07:23PM 40.7520 -71.3140 74° East 507 583 33,000  Level FlightAware
07:24PM 40.7740 -71.2050 75° East 504 580 33,000  Level FlightAware
07:24PM 40.7980 -71.0920 74° East 507 583 33,000  Level FlightAware
07:25PM 40.8210 -70.9820 75° East 506 582 33,000  Level FlightAware
07:26PM 40.8480 -70.8530 74° East 506 582 33,000  Level FlightAware
07:26PM 40.8740 -70.7270 75° East 506 582 33,000  Level FlightAware
07:27PM 40.8990 -70.6000 75° East 506 582 33,000  Level FlightAware
07:28PM 40.9280 -70.4600 75° East 509 586 33,000  Level FlightAware
07:28PM 40.9460 -70.3680 75° East 509 586 33,000  Level FlightAware
07:29PM 40.9650 -70.2760 75° East 509 586 33,000  Level FlightAware
07:30PM 40.9840 -70.1790 75° East 509 586 33,000  Level FlightAware
07:30PM 41.0030 -70.0870 75° East 509 586 33,000  Level FlightAware
07:31PM 41.0220 -69.9940 75° East 509 586 33,000  Level FlightAware
07:31PM 41.0400 -69.9020 75° East 509 586 33,000  Level FlightAware
07:32PM 41.0590 -69.8100 75° East 509 586 33,000  Level FlightAware
07:33PM 41.0780 -69.7170 75° East 509 586 33,000  Level FlightAware
07:33PM 41.0970 -69.6230 75° East 509 586 33,000  Level FlightAware
07:34PM 41.1150 -69.5300 76° East 509 586 33,000  Level FlightAware
07:34PM 41.1340 -69.4380 75° East 509 586 33,000  Level FlightAware
07:35PM 41.1530 -69.3450 75° East 509 586 33,000  Level FlightAware
07:36PM 41.1710 -69.2530 75° East 509 586 33,000  Level FlightAware
07:36PM 41.1900 -69.1600 75° East 509 586 33,000  Level FlightAware
07:37PM 41.2090 -69.0680 75° East 509 586 33,000  Level FlightAware
07:39PM 41.5480 -68.6124 45° Northeast 500 575 33,000  Level FlightAware ADS-B (CYQI)
07:40PM 41.6087 -68.4654 61° Northeast 499 574 33,000  Level FlightAware ADS-B (CYQI)
07:40PM 41.6432 -68.3815 61° Northeast 499 574 33,000  Level FlightAware ADS-B (CYQI)
07:41PM 41.6773 -68.2986 61° Northeast 500 575 33,000  Level FlightAware ADS-B (CYQI)
07:41PM 41.7133 -68.2105 61° Northeast 500 575 33,000  Level FlightAware ADS-B (CYQI)
07:42PM 41.7308 -68.1677 61° Northeast 501 577 33,000  Level FlightAware ADS-B (KBOS)
07:42PM 41.7836 -68.0380 61° Northeast 502 578 33,000  Level FlightAware ADS-B (KBOS)
07:43PM 41.8366 -67.9073 61° Northeast 503 579 33,000  Level FlightAware ADS-B (CYQI)
07:44PM 41.8771 -67.8068 62° Northeast 506 582 33,000  Level FlightAware ADS-B (KBOS)
07:44PM 41.9244 -67.6892 62° Northeast 507 583 33,000  Level FlightAware ADS-B (KBOS)
07:45PM 41.9532 -67.6173 62° Northeast 507 583 33,000  Level FlightAware ADS-B (KBOS)
07:46PM 41.8886 -67.7784 242° Southwest 507 583 33,000  Level FlightAware ADS-B (CYQI)
07:46PM 42.0495 -67.3756 62° Northeast 508 585 33,000  Level FlightAware ADS-B (KBOS)
07:47PM 42.0620 -67.3443 62° Northeast 507 583 33,000  Level FlightAware ADS-B (KBOS)
07:48PM 42.1142 -67.2124 62° Northeast 508 585 33,000  Level FlightAware ADS-B (CYQI)
07:48PM 42.1800 -67.0440 62° Northeast 510 587 33,000  Level FlightAware
07:48PM 42.1904 -67.0134 65° Northeast 512 589 33,000  Level FlightAware ADS-B (CYQI)
07:49PM 42.2140 -66.9490 64° Northeast 510 587 33,000  Level FlightAware
07:49PM 42.2235 -66.8891 78° East 517 595 33,000 600 Level FlightAware ADS-B (CYQI)
07:50PM 42.2510 -66.7730 72° East 510 587 33,500 900 Climbing FlightAware
07:50PM 42.2650 -66.7341 64° Northeast 507 583 33,800 1,200 Climbing FlightAware ADS-B (CYQI)
07:50PM 42.2889 -66.6908 53° Northeast 492 566 34,000 180 Climbing FlightAware ADS-B (CYQI)
07:51PM 42.3390 -66.6166 48° Northeast 501 577 34,000  Level FlightAware ADS-B (CYQI)
07:51PM 42.3864 -66.5185 57° Northeast 502 578 34,000  Level FlightAware ADS-B (CYQI)
07:52PM 42.4226 -66.4430 57° Northeast 503 579 34,000  Level FlightAware ADS-B (CYQI)
07:52PM 42.4571 -66.3711 57° Northeast 503 579 34,000  Level FlightAware ADS-B (CYQI)
07:53PM 42.5067 -66.2675 57° Northeast 505 581 34,000  Level FlightAware ADS-B (CYQI)
07:54PM 42.5444 -66.1726 62° Northeast 510 587 34,000  Level FlightAware ADS-B (CYQI)
07:54PM 42.5737 -66.0802 67° East 517 595 34,000  Level FlightAware ADS-B (CYQI)
07:55PM 42.5989 -65.9821 71° East 521 600 34,000  Level FlightAware ADS-B (CYQI)
07:55PM 42.6211 -65.8858 73° East 523 602 34,000  Level FlightAware ADS-B (CYQI)
07:56PM 42.6422 -65.7903 73° East 524 603 34,000  Level FlightAware ADS-B (CYQI)
07:56PM 42.6623 -65.6986 73° East 527 606 34,000  Level FlightAware ADS-B (CYQI)
07:57PM 42.6837 -65.6001 74° East 528 608 34,000  Level FlightAware ADS-B (CYQI)
07:57PM 42.7008 -65.5209 74° East 528 608 34,000  Level FlightAware ADS-B (CYQI)
07:58PM 42.7200 -65.4290 74° East 529 609 34,000  Level FlightAware
07:58PM 42.7324 -65.3726 73° East 529 609 34,000  Level FlightAware ADS-B (CYQI)
07:58PM 42.7536 -65.2725 74° East 530 610 34,000  Level FlightAware ADS-B (CYQI)
07:59PM 42.7733 -65.1798 74° East 530 610 34,000  Level FlightAware ADS-B (CYQI)
07:59PM 42.7934 -65.0840 74° East 531 611 34,000  Level FlightAware ADS-B (CYQI)
08:00PM 42.8147 -64.9825 74° East 533 613 34,000  Level FlightAware ADS-B (CYQI)
08:00PM 42.8363 -64.8783 74° East 535 616 34,000  Level FlightAware ADS-B (CYQI)
08:01PM 42.8554 -64.7865 74° East 535 616 34,000  Level FlightAware ADS-B (CYQI)
08:01PM 42.8730 -64.7020 74° East 536 617 34,000  Level FlightAware
08:01PM 42.8793 -64.6708 75° East 536 617 34,000  Level FlightAware ADS-B (CYQI)
08:02PM 42.9000 -64.5702 74° East 537 618 34,000  Level FlightAware ADS-B (CYQI)
08:03PM 42.9190 -64.4770 74° East 537 618 34,000  Level FlightAware
08:03PM 42.9400 -64.3590 76° East 539 620 34,000  Level FlightAware
08:03PM 42.9489 -64.3095 76° East 539 620 34,000  Level FlightAware ADS-B (CYQI)
08:04PM 42.9728 -64.1722 77° East 542 624 34,000  Level FlightAware ADS-B (CYQI)
08:04PM 42.9906 -64.0709 77° East 543 625 34,000  Level FlightAware ADS-B (CYQI)
08:05PM 43.0203 -63.9010 76° East 544 626 34,000  Level FlightAware ADS-B (CYQI)
08:06PM 43.0347 -63.8193 76° East 545 627 34,000  Level FlightAware ADS-B (CYQI)
08:06PM 43.0613 -63.6656 77° East 547 629 34,000  Level FlightAware ADS-B (CYQI)
08:07PM 43.0820 -63.5490 76° East 546 628 34,000  Level FlightAware
08:08PM 43.0943 -63.4743 77° East 547 629 34,000  Level FlightAware ADS-B (CYQI)
08:08PM 43.1210 -63.3140 77° East 547 629 34,000  Level FlightAware
08:09PM 43.1420 -63.1950 76° East 548 631 34,000  Level FlightAware
08:10PM 43.1620 -63.0760 77° East 550 633 34,000  Level FlightAware
08:10PM 43.1800 -62.9640 78° East 552 635 34,000  Level FlightAware
08:11PM 43.1970 -62.8630 77° East 552 635 34,000  Level FlightAware
08:11PM 43.2250 -62.6940 77° East 553 636 34,000  Level FlightAware
08:12PM 43.2450 -62.5660 78° East 554 638 34,000  Level FlightAware
08:13PM 43.2650 -62.4420 77° East 557 641 34,000  Level FlightAware
08:13PM 43.2860 -62.3110 78° East 558 642 34,000  Level FlightAware
08:14PM 43.3060 -62.1850 78° East 558 642 34,000  Level FlightAware
08:14PM 43.3250 -62.0670 77° East 558 642 34,000  Level FlightAware
08:15PM 43.3480 -61.9190 78° East 558 642 34,000  Level FlightAware
08:16PM 43.3660 -61.8020 78° East 558 642 34,000  Level FlightAware
08:16PM 43.3830 -61.6920 78° East 558 642 34,000  Level FlightAware
08:17PM 43.4030 -61.5640 78° East 558 642 34,000  Level FlightAware
08:17PM 43.4210 -61.4400 79° East 558 642 34,000  Level FlightAware
08:18PM 43.4380 -61.3280 78° East 559 643 34,000  Level FlightAware
08:19PM 43.4640 -61.1600 78° East 561 646 34,000  Level FlightAware
08:19PM 43.4790 -61.0560 79° East 560 644 34,000  Level FlightAware
08:20PM 43.5030 -60.8890 79° East 560 644 34,000  Level FlightAware
08:21PM 43.5200 -60.7710 79° East 559 643 34,000  Level FlightAware
08:22PM 43.5400 -60.6330 79° East 559 643 34,000  Level FlightAware
08:22PM 43.5550 -60.5260 79° East 559 643 34,000  Level FlightAware
08:23PM 43.5700 -60.4190 79° East 559 643 34,000  Level FlightAware
08:23PM 43.5850 -60.3120 79° East 559 643 34,000  Level FlightAware
08:24PM 43.6000 -60.2050 79° East 559 643 34,000  Level FlightAware
08:25PM 43.6160 -60.0940 79° East 559 643 34,000  Level FlightAware
08:25PM 43.6310 -59.9870 79° East 559 643 34,000  Level FlightAware
08:26PM 43.6460 -59.8770 79° East 559 643 34,000  Level FlightAware
08:26PM 43.6610 -59.7690 79° East 559 643 34,000  Level FlightAware
08:27PM 43.6770 -59.6620 78° East 559 643 34,000  Level FlightAware
08:28PM 43.6920 -59.5540 79° East 559 643 34,000  Level FlightAware
08:28PM 43.7070 -59.4470 79° East 559 643 34,000  Level FlightAware
08:29PM 43.7220 -59.3360 79° East 559 643 34,000  Level FlightAware
08:29PM 43.7660 -58.9680 80° East 547 629 34,000  Level FlightAware
08:30PM 43.7810 -58.8540 80° East 549 632 34,000  Level FlightAware
08:30PM 43.7960 -58.7340 80° East 549 632 34,000  Level FlightAware
08:31PM 43.8090 -58.6300 80° East 549 632 34,000  Level FlightAware
08:32PM 43.8230 -58.5240 80° East 549 632 34,000  Level FlightAware
08:32PM 43.8360 -58.4180 80° East 549 632 34,000  Level FlightAware
08:33PM 43.8500 -58.3120 80° East 549 632 34,000  Level FlightAware
08:33PM 43.8700 -58.1340 81° East 544 626 34,000  Level FlightAware
08:34PM 43.8850 -58.0170 80° East 544 626 34,000  Level FlightAware
08:35PM 43.8980 -57.9120 80° East 544 626 34,000  Level FlightAware
08:35PM 43.9150 -57.7520 82° East 552 635 34,000  Level FlightAware
08:36PM 43.9300 -57.6220 81° East 555 639 34,000  Level FlightAware
08:37PM 43.9500 -57.4430 81° East 553 636 34,000  Level FlightAware
08:37PM 43.9670 -57.2970 81° East 551 634 34,000  Level FlightAware
08:38PM 43.9800 -57.1810 81° East 550 633 34,000  Level FlightAware
08:39PM 44.0000 -57.0030 81° East 549 632 34,000  Level FlightAware
08:39PM 44.0120 -56.8960 81° East 549 632 34,000  Level FlightAware
08:40PM 44.0240 -56.7890 81° East 549 632 34,000  Level FlightAware
08:41PM 44.0360 -56.6830 81° East 549 632 34,000  Level FlightAware
08:41PM 44.0490 -56.5730 81° East 549 632 34,000  Level FlightAware
08:42PM 44.0610 -56.4660 81° East 549 632 34,000  Level FlightAware
08:42PM 44.0730 -56.3590 81° East 549 632 34,000  Level FlightAware
08:43PM 44.0850 -56.2520 81° East 549 632 34,000  Level FlightAware
08:44PM 44.0970 -56.1450 81° East 549 632 34,000  Level FlightAware
08:44PM 44.1100 -56.0390 80° East 549 632 34,000  Level FlightAware
08:45PM 44.1220 -55.9320 81° East 549 632 34,000  Level FlightAware
08:45PM 44.1340 -55.8250 81° East 549 632 34,000  Level FlightAware
08:46PM 44.1460 -55.7180 81° East 549 632 34,000  Level FlightAware
08:47PM 44.1580 -55.6110 81° East 549 632 34,000  Level FlightAware
08:47PM 44.1700 -55.5040 81° East 549 632 34,000  Level FlightAware
08:48PM 44.1830 -55.3940 81° East 549 632 34,000  Level FlightAware
08:49PM 44.1500 -54.8667 81° East 520 598 34,000  Level Gander Center
08:50PM 44.1500 -54.6667 90° East 530 610 34,000  Level Gander Center
08:50PM 44.1500 -54.5500 90° East 540 621 34,000  Level Gander Center
08:51PM 44.1500 -54.3667 90° East 530 610 34,000  Level Moncton Center
08:53PM 44.1500 -54.0333 90° East 540 621 34,000  Level Gander Center
08:53PM 44.1500 -53.9167 90° East 540 621 34,000  Level Gander Center
08:54PM 44.1667 -53.7000 84° East 540 621 34,000  Level Gander Center
08:55PM 44.1667 -53.5000 90° East 540 621 34,000  Level Gander Center
08:56PM 44.1500 -53.3333 98° East 540 621 34,000  Level Moncton Center
08:57PM 44.1667 -53.1167 84° East 540 621 34,000  Level Moncton Center
08:58PM 44.1500 -52.9167 97° East 560 644 34,000  Level Moncton Center
08:59PM 44.1500 -52.7000 90° East 540 621 34,000  Level Moncton Center
09:00PM 44.1500 -52.5000 90° East 540 621 34,000  Level Moncton Center
09:01PM 44.1333 -52.2833 96° East 540 621 34,000  Level Moncton Center
09:01PM 44.1500 -52.2500 86° East 540 621 34,000  Level Gander Center
09:02PM 44.1500 -52.7500 86° East 543 625 34,000  Level New York Oceanic (ODAPS)
09:02PM 44.1333 -52.0167 96° East 550 633 34,000  Level Gander Center
09:03PM 44.1667 -52.4333 95° East 551 634 34,000  Level New York Oceanic (ODAPS)
09:04PM 44.1000 -51.6333 95° East 560 644 34,000  Level Moncton Center
09:05PM 44.0833 -51.4333 97° East 560 644 34,000  Level Moncton Center
09:06PM 44.0667 -51.1833 95° East 560 644 34,000  Level Gander Center
09:07PM 44.0667 -50.9500 90° East 560 644 34,000  Level Gander Center
09:08PM 44.0500 -50.7500 97° East 570 656 34,000  Level Gander Center
09:09PM 44.0167 -50.5167 101° East 560 644 34,000  Level Gander Center
09:12PM 44.0072 -50.2134 92° East  Level FlightAware Approximate
09:13PM 44.0000 -50.0000 71° East 568 654 34,000  Level New York Oceanic (ODAPS)
09:14PM 44.0500 -49.7833 71° East 567 652 34,000  Level New York Oceanic (ODAPS)
09:19PM 44.3095 -48.7367 72° East 568 654 34,000  Level FlightAware Transoceanic
09:20PM 44.3575 -48.5188 72° East 567 652 34,000  Level FlightAware Transoceanic
09:21PM 44.4074 -48.3068 72° East 567 652 34,000  Level FlightAware Transoceanic
09:22PM 44.4569 -48.0944 72° East 567 652 34,000  Level FlightAware Transoceanic
09:23PM 44.5060 -47.8816 72° East 567 652 34,000  Level FlightAware Transoceanic
09:24PM 44.5546 -47.6685 72° East 567 652 34,000  Level FlightAware Transoceanic
09:25PM 44.6030 -47.4550 72° East 567 652 34,000  Level FlightAware Transoceanic
09:26PM 44.6509 -47.2412 73° East 567 652 34,000  Level FlightAware Transoceanic
09:27PM 44.6984 -47.0270 73° East 567 652 34,000  Level FlightAware Transoceanic
09:28PM 44.7455 -46.8125 73° East 567 652 34,000  Level FlightAware Transoceanic
09:29PM 44.7922 -46.5976 73° East 567 652 34,000  Level FlightAware Transoceanic
09:30PM 44.8385 -46.3824 73° East 567 652 34,000  Level FlightAware Transoceanic
09:31PM 44.8844 -46.1669 73° East 567 652 34,000  Level FlightAware Transoceanic
09:32PM 44.9299 -45.9510 74° East 567 652 34,000  Level FlightAware Transoceanic
09:33PM 44.9749 -45.7347 74° East 567 652 34,000  Level FlightAware Transoceanic
09:34PM 45.0196 -45.5181 74° East 567 652 34,000  Level FlightAware Transoceanic
09:35PM 45.0639 -45.3012 74° East 567 652 34,000  Level FlightAware Transoceanic
09:36PM 45.1077 -45.0839 74° East 567 652 34,000  Level FlightAware Transoceanic
09:37PM 45.1512 -44.8664 74° East 567 652 34,000  Level FlightAware Transoceanic
09:38PM 45.1942 -44.6484 74° East 567 652 34,000  Level FlightAware Transoceanic
09:39PM 45.2368 -44.4302 75° East 567 652 34,000  Level FlightAware Transoceanic
09:40PM 45.2790 -44.2116 75° East 567 652 34,000  Level FlightAware Transoceanic
09:41PM 45.3208 -43.9927 75° East 567 652 34,000  Level FlightAware Transoceanic
09:42PM 45.3621 -43.7735 75° East 567 652 34,000  Level FlightAware Transoceanic
09:43PM 45.4031 -43.5540 75° East 567 652 34,000  Level FlightAware Transoceanic
09:44PM 45.4436 -43.3341 75° East 567 652 34,000  Level FlightAware Transoceanic
09:45PM 45.4837 -43.1139 76° East 567 652 34,000  Level FlightAware Transoceanic
09:46PM 45.5233 -42.8935 76° East 567 652 34,000  Level FlightAware Transoceanic
09:47PM 45.5626 -42.6727 76° East 567 652 34,000  Level FlightAware Transoceanic
09:48PM 45.6014 -42.4516 76° East 567 652 34,000  Level FlightAware Transoceanic
09:49PM 45.6398 -42.2302 76° East 567 652 34,000  Level FlightAware Transoceanic
09:50PM 45.6778 -42.0085 76° East 567 652 34,000  Level FlightAware Transoceanic
09:51PM 45.7153 -41.7865 76° East 567 652 34,000  Level FlightAware Transoceanic
09:52PM 45.7524 -41.5642 77° East 567 652 34,000  Level FlightAware Transoceanic
09:53PM 45.7891 -41.3416 77° East 567 652 34,000  Level FlightAware Transoceanic
09:54PM 45.8253 -41.1187 77° East 567 652 34,000  Level FlightAware Transoceanic
09:55PM 45.8611 -40.8955 77° East 567 652 34,000  Level FlightAware Transoceanic
09:56PM 45.8965 -40.6721 77° East 567 652 34,000  Level FlightAware Transoceanic
09:57PM 45.9314 -40.4483 77° East 567 652 34,000  Level FlightAware Transoceanic
09:58PM 45.9659 -40.2243 78° East 567 652 34,000  Level FlightAware Transoceanic
09:59PM 46.0000 -40.0000 62° Northeast 567 652 34,000  Level FlightAware Transoceanic
10:00PM 46.0741 -39.7949 63° Northeast 567 652 34,000  Level FlightAware Transoceanic
10:01PM 46.1479 -39.5892 63° Northeast 567 652 34,000  Level FlightAware Transoceanic
10:02PM 46.2213 -39.3830 63° Northeast 567 652 34,000  Level FlightAware Transoceanic
10:03PM 46.2943 -39.1763 63° Northeast 567 652 34,000  Level FlightAware Transoceanic
10:04PM 46.3670 -38.9689 63° Northeast 567 652 34,000  Level FlightAware Transoceanic
10:05PM 46.4393 -38.7611 63° Northeast 567 652 34,000  Level FlightAware Transoceanic
10:06PM 46.5112 -38.5527 63° Northeast 567 652 34,000  Level FlightAware Transoceanic
10:07PM 46.5827 -38.3437 64° Northeast 567 652 34,000  Level FlightAware Transoceanic
10:08PM 46.6539 -38.1342 64° Northeast 567 652 34,000  Level FlightAware Transoceanic
10:09PM 46.7246 -37.9241 64° Northeast 567 652 34,000  Level FlightAware Transoceanic
10:10PM 46.7950 -37.7135 64° Northeast 567 652 34,000  Level FlightAware Transoceanic
10:11PM 46.8650 -37.5023 64° Northeast 567 652 34,000  Level FlightAware Transoceanic
10:12PM 46.9346 -37.2906 64° Northeast 567 652 34,000  Level FlightAware Transoceanic
10:13PM 47.0038 -37.0783 65° Northeast 567 652 34,000  Level FlightAware Transoceanic
10:14PM 47.0726 -36.8655 65° Northeast 567 652 34,000  Level FlightAware Transoceanic
10:15PM 47.1410 -36.6521 65° Northeast 567 652 34,000  Level FlightAware Transoceanic
10:16PM 47.2090 -36.4382 65° Northeast 567 652 34,000  Level FlightAware Transoceanic
10:17PM 47.2766 -36.2238 65° Northeast 567 652 34,000  Level FlightAware Transoceanic
10:18PM 47.3439 -36.0088 65° Northeast 567 652 34,000  Level FlightAware Transoceanic
10:19PM 47.4107 -35.7932 65° Northeast 567 652 34,000  Level FlightAware Transoceanic
10:20PM 47.4771 -35.5771 66° East 567 652 34,000  Level FlightAware Transoceanic
10:21PM 47.5431 -35.3604 66° East 567 652 34,000  Level FlightAware Transoceanic
10:22PM 47.6087 -35.1432 66° East 567 652 34,000  Level FlightAware Transoceanic
10:23PM 47.6739 -34.9255 66° East 567 652 34,000  Level FlightAware Transoceanic
10:24PM 47.7387 -34.7072 66° East 567 652 34,000  Level FlightAware Transoceanic
10:25PM 47.8030 -34.4884 66° East 567 652 34,000  Level FlightAware Transoceanic
10:26PM 47.8670 -34.2691 67° East 567 652 34,000  Level FlightAware Transoceanic
10:27PM 47.9305 -34.0491 67° East 567 652 34,000  Level FlightAware Transoceanic
10:28PM 47.9936 -33.8287 67° East 567 652 34,000  Level FlightAware Transoceanic
10:29PM 48.0563 -33.6077 67° East 567 652 34,000  Level FlightAware Transoceanic
10:30PM 48.1185 -33.3862 67° East 567 652 34,000  Level FlightAware Transoceanic
10:31PM 48.1803 -33.1642 67° East 567 652 34,000  Level FlightAware Transoceanic
10:32PM 48.2417 -32.9416 68° East 567 652 34,000  Level FlightAware Transoceanic
10:33PM 48.3027 -32.7185 68° East 567 652 34,000  Level FlightAware Transoceanic
10:34PM 48.3632 -32.4948 68° East 567 652 34,000  Level FlightAware Transoceanic
10:35PM 48.4233 -32.2706 68° East 567 652 34,000  Level FlightAware Transoceanic
10:36PM 48.4830 -32.0459 68° East 567 652 34,000  Level FlightAware Transoceanic
10:37PM 48.5422 -31.8207 68° East 567 652 34,000  Level FlightAware Transoceanic
10:38PM 48.6010 -31.5949 69° East 567 652 34,000  Level FlightAware Transoceanic
10:39PM 48.6593 -31.3686 69° East 567 652 34,000  Level FlightAware Transoceanic
10:40PM 48.7172 -31.1418 69° East 567 652 34,000  Level FlightAware Transoceanic
10:41PM 48.7747 -30.9145 69° East 567 652 34,000  Level FlightAware Transoceanic
10:42PM 48.8317 -30.6866 69° East 567 652 34,000  Level FlightAware Transoceanic
10:43PM 48.8882 -30.4583 69° East 567 652 34,000  Level FlightAware Transoceanic
10:44PM 48.9444 -30.2294 70° East 567 652 34,000  Level FlightAware Transoceanic
10:45PM 48.9890 -30.0306 71° East  Level Estimated
10:46PM 49.0336 -29.8298 71° East  Level Estimated
10:47PM 49.0779 -29.6286 71° East  Level Estimated
10:48PM 49.1218 -29.4271 72° East  Level Estimated
10:49PM 49.1654 -29.2252 72° East  Level Estimated
10:50PM 49.2087 -29.0230 72° East  Level Estimated
10:51PM 49.2516 -28.8204 72° East  Level Estimated
10:52PM 49.2941 -28.6175 72° East  Level Estimated
10:53PM 49.3363 -28.4142 72° East  Level Estimated
10:54PM 49.3781 -28.2106 72° East  Level Estimated
10:55PM 49.4196 -28.0066 73° East  Level Estimated
10:56PM 49.4607 -27.8023 73° East  Level Estimated
10:57PM 49.5014 -27.5976 73° East  Level Estimated
10:58PM 49.5418 -27.3926 73° East  Level Estimated
10:59PM 49.5818 -27.1873 73° East  Level Estimated
11:00PM 49.6214 -26.9816 73° East  Level Estimated
11:01PM 49.6607 -26.7756 74° East  Level Estimated
11:02PM 49.6996 -26.5693 74° East  Level Estimated
11:03PM 49.7382 -26.3626 74° East  Level Estimated
11:04PM 49.7764 -26.1556 74° East  Level Estimated
11:05PM 49.8142 -25.9483 74° East  Level Estimated
11:06PM 49.8517 -25.7407 74° East  Level Estimated
11:07PM 49.8887 -25.5327 74° East  Level Estimated
11:08PM 49.9254 -25.3244 75° East  Level Estimated
11:09PM 49.9618 -25.1158 75° East  Level Estimated
11:10PM 49.9977 -24.9069 75° East  Level Estimated
11:11PM 50.0333 -24.6977 75° East  Level Estimated
11:12PM 50.0685 -24.4882 75° East  Level Estimated
11:13PM 50.1033 -24.2783 75° East  Level Estimated
11:14PM 50.1377 -24.0682 76° East  Level Estimated
11:15PM 50.1718 -23.8577 76° East  Level Estimated
11:16PM 50.2055 -23.6470 76° East  Level Estimated
11:17PM 50.2388 -23.4360 76° East  Level Estimated
11:18PM 50.2717 -23.2246 76° East  Level Estimated
11:19PM 50.3042 -23.0130 76° East  Level Estimated
11:20PM 50.3364 -22.8011 77° East  Level Estimated
11:21PM 50.3682 -22.5889 77° East  Level Estimated
11:22PM 50.3995 -22.3765 77° East  Level Estimated
11:23PM 50.4305 -22.1637 77° East  Level Estimated
11:24PM 50.4611 -21.9507 77° East  Level Estimated
11:25PM 50.4913 -21.7374 77° East  Level Estimated
11:26PM 50.5212 -21.5238 78° East  Level Estimated
11:27PM 50.5506 -21.3100 78° East  Level Estimated
11:28PM 50.5796 -21.0959 78° East  Level Estimated
11:29PM 50.6082 -20.8821 78° East  Level Estimated
11:30PM 50.6364 -20.6680 78° East  Level Estimated
11:31PM 50.6642 -20.4537 78° East  Level Estimated
11:32PM 50.6916 -20.2392 79° East  Level Estimated
11:33PM 50.7186 -20.0244 79° East  Level Estimated
11:34PM 50.7452 -19.8093 79° East  Level Estimated
11:35PM 50.7714 -19.5940 79° East  Level Estimated
11:36PM 50.7972 -19.3785 79° East  Level Estimated
11:37PM 50.8226 -19.1627 79° East  Level Estimated
11:38PM 50.8476 -18.9467 80° East  Level Estimated
11:39PM 50.8722 -18.7305 80° East  Level Estimated
11:40PM 50.8965 -18.5140 80° East  Level Estimated
11:41PM 50.9203 -18.2973 80° East  Level Estimated
11:42PM 50.9437 -18.0805 80° East  Level Estimated
11:43PM 50.9667 -17.8633 80° East  Level Estimated
11:44PM 50.9893 -17.6460 81° East  Level Estimated
11:45PM 51.0115 -17.4285 81° East  Level Estimated
11:46PM 51.0333 -17.2107 81° East  Level Estimated
11:47PM 51.0547 -16.9928 81° East  Level Estimated
11:48PM 51.0757 -16.7746 81° East  Level Estimated
11:49PM 51.0963 -16.5563 81° East  Level Estimated
11:50PM 51.1165 -16.3377 82° East  Level Estimated
11:51PM 51.1363 -16.1184 82° East  Level Estimated
11:52PM 51.1557 -15.8989 82° East  Level Estimated
11:53PM 51.1747 -15.6792 82° East  Level Estimated
11:54PM 51.1933 -15.4593 82° East  Level Estimated
11:55PM 51.2115 -15.2393 82° East  Level Estimated
11:56PM 51.2292 -15.0191 83° East  Level Estimated
11:57PM 51.2466 -14.7987 83° East  Level Estimated
11:58PM 51.2635 -14.5781 83° East  Level Estimated
11:59PM 51.2800 -14.3574 83° East  Level Estimated
12:00AM 51.2961 -14.1365 83° East  Level Estimated
12:01AM 51.3118 -13.9155 83° East  Level Estimated
12:01AM 51.2880 -12.5920 83° East 503 579 34,000  Level FlightAware
12:01AM 51.3010 -12.4720 80° East 502 578 34,000  Level FlightAware
12:02AM 51.3140 -12.3600 79° East 502 578 34,000  Level FlightAware
12:02AM 51.3260 -12.2450 80° East 502 578 34,000  Level FlightAware
12:03AM 51.3390 -12.1290 80° East 502 578 34,000  Level FlightAware
12:04AM 51.3520 -12.0140 80° East 502 578 34,000 660 Level FlightAware
12:06AM 51.3760 -11.6037 84° East  Level Estimated
12:07AM 51.3884 -11.3818 85° East  Level Estimated
12:07AM 51.4280 -11.2310 85° East 37,000  Level FlightAware
12:07AM 51.4390 -11.1130 81° East 493 567 37,000  Level FlightAware
12:08AM 51.4570 -10.9300 81° East 493 567 37,000  Level FlightAware
12:09AM 51.4710 -10.7720 82° East 493 567 37,000  Level FlightAware
12:10AM 51.4840 -10.6340 81° East 492 566 37,000  Level FlightAware
12:10AM 51.4940 -10.5230 82° East 492 566 37,000  Level FlightAware
12:11AM 51.5080 -10.3800 81° East 491 565 37,000  Level FlightAware
12:11AM 51.5190 -10.2460 82° East 491 565 37,000  Level FlightAware
12:12AM 51.5320 -10.0960 82° East 490 564 37,000  Level FlightAware
12:12AM 51.4976 -10.4836 262° West 490 564 37,000  Level FlightAware ADS-B (EGFH / SWS)
12:13AM 51.5481 -9.9047 82° East 491 565 37,000  Level FlightAware ADS-B (EGFH / SWS)
12:14AM 51.5630 -9.7230 82° East 487 560 37,000  Level FlightAware
12:14AM 51.5564 -9.8066 263° West 487 560 37,000  Level FlightAware ADS-B (EGFH / SWS)
12:15AM 51.5794 -9.5284 82° East 489 563 37,000  Level FlightAware ADS-B (EGFH / SWS)
12:15AM 51.5882 -9.4188 83° East 489 563 37,000  Level FlightAware ADS-B (EGFH / SWS)
12:16AM 51.5958 -9.3243 83° East 489 563 37,000  Level FlightAware ADS-B (EGFH / SWS)
12:16AM 51.6035 -9.2266 83° East 488 562 37,000  Level FlightAware ADS-B (EGFH / SWS)
12:17AM 51.6147 -9.0835 83° East 487 560 37,000  Level FlightAware ADS-B (EGFH / SWS)
12:17AM 51.6250 -8.9430 83° East 487 560 37,000  Level FlightAware
12:18AM 51.6310 -8.8695 82° East 486 559 37,000  Level FlightAware ADS-B (EGFH / SWS)
12:19AM 51.6440 -8.6910 82° East 482 555 37,000  Level FlightAware
12:19AM 51.6463 -8.6602 82° East 474 545 37,000  Level FlightAware UK
12:19AM 51.6542 -8.5539 82° East 472 543 37,000  Level FlightAware UK
12:19AM 51.6540 -8.5660 82° East 481 554 37,000 -240 Level FlightAware
12:20AM 51.6619 -8.4477 82° East 472 543 36,900  Descending FlightAware UK
12:20AM 51.6620 -8.4430 82° East 482 555 37,000 120 Climbing FlightAware
12:20AM 51.6724 -8.3044 83° East 481 554 37,000  Level FlightAware ADS-B (EGFH / SWS)
12:21AM 51.6801 -8.1944 83° East 481 554 37,000  Level FlightAware ADS-B (EGFH / SWS)
12:22AM 51.6884 -8.0746 84° East 483 556 37,000  Level FlightAware ADS-B (EGFH / SWS)
12:22AM 51.6948 -7.9812 84° East 483 556 37,000  Level FlightAware ADS-B (EGFH / SWS)
12:23AM 51.7048 -7.8321 84° East 484 557 37,000  Level FlightAware ADS-B
12:23AM 51.7096 -7.7599 84° East 482 555 37,000  Level FlightAware ADS-B
12:24AM 51.7208 -7.5925 84° East 464 534 37,000  Level FlightAware UK
12:24AM 51.7230 -7.5570 84° East 475 547 37,000  Level FlightAware
12:25AM 51.7305 -7.4343 84° East 470 541 37,000  Level FlightAware ADS-B (EGFH / SWS)
12:25AM 51.7379 -7.3156 84° East 461 531 37,000  Level FlightAware ADS-B (EGFH / SWS)
12:26AM 51.7451 -7.1996 84° East 460 529 37,000  Level FlightAware ADS-B (EGFH / SWS)
12:26AM 51.7514 -7.0966 84° East 458 527 37,000 -120 Level FlightAware ADS-B (EGFH / SWS)
12:27AM 51.7586 -6.9734 84° East 450 518 36,900  Descending FlightAware UK
12:27AM 51.7610 -6.9380 84° East 458 527 37,000 180 Climbing FlightAware
12:27AM 51.7650 -6.8684 85° East 457 526 37,000  Level FlightAware ADS-B (EGBS)
12:28AM 51.7699 -6.7812 85° East 456 525 37,000  Level FlightAware ADS-B (EIDW / DUB)
12:28AM 51.7771 -6.6547 85° East 454 522 37,000  Level FlightAware ADS-B
12:29AM 51.7803 -6.5518 87° East 457 526 37,000  Level FlightAware ADS-B (EGFH / SWS)
12:29AM 51.7777 -6.4421 92° East 461 531 37,000  Level FlightAware ADS-B (EGFH / SWS)
12:30AM 51.7737 -6.3413 94° East 463 533 37,000  Level FlightAware ADS-B (EGFH / SWS)
12:30AM 51.7692 -6.2345 94° East 463 533 37,000  Level FlightAware ADS-B (EGFH / SWS)
12:31AM 51.7650 -6.1324 94° East 461 531 37,000  Level FlightAware ADS-B (EGFH / SWS)
12:31AM 51.7645 -6.1204 93° East 459 528 37,000  Level FlightAware ADS-B
12:31AM 51.7614 -6.0207 93° East 457 526 37,000  Level FlightAware ADS-B (EGBS)
12:32AM 51.7607 -5.9970 93° East 456 525 37,000  Level FlightAware ADS-B (EGDX / DGX)
12:32AM 51.7571 -5.8871 93° East 455 524 37,000  Level FlightAware ADS-B (EGBS)
12:32AM 51.7549 -5.8213 93° East 453 521 37,000  Level FlightAware ADS-B (EGDX / DGX)
12:33AM 51.7549 -5.8213 93° East 452 520 37,000  Level FlightAware ADS-B (EGDX / DGX)
12:33AM 51.7492 -5.6565 93° East 451 519 37,000  Level FlightAware ADS-B
12:33AM 51.7478 -5.6192 93° East 451 519 37,000  Level FlightAware ADS-B
12:34AM 51.7477 -5.6162 94° East 452 520 37,000  Level FlightAware ADS-B
12:34AM 51.7411 -5.4405 93° East 451 519 37,000  Level FlightAware ADS-B
12:35AM 51.7388 -5.3820 94° East 450 518 37,000  Level FlightAware ADS-B
12:35AM 51.7378 -5.3548 94° East 450 518 37,000  Level FlightAware ADS-B
12:35AM 51.7369 -5.3344 94° East 451 519 37,000  Level FlightAware ADS-B
12:35AM 51.7347 -5.2769 94° East 450 518 37,000  Level FlightAware ADS-B
12:35AM 51.7330 -5.2365 94° East 450 518 37,000 -480 Level FlightAware ADS-B
12:36AM 51.7313 -5.1938 94° East 450 518 36,800 -1,200 Descending FlightAware ADS-B
12:36AM 51.7281 -5.1150 94° East 451 519 36,200 -1,680 Descending FlightAware ADS-B (EGDX / DGX)
12:36AM 51.7281 -5.1150 94° East 451 519 35,400 -1,320 Descending FlightAware ADS-B (EGDX / DGX)
12:37AM 51.7197 -4.9102 94° East 466 536 35,000 -660 Descending FlightAware ADS-B (EGFH / SWS)
12:37AM 51.7112 -4.7998 97° East 465 535 34,700 -720 Descending FlightAware ADS-B
12:38AM 51.7071 -4.7592 99° East 464 534 34,500 -1,140 Descending FlightAware ADS-B
12:38AM 51.7038 -4.7245 99° East 462 532 34,300 -1,320 Descending FlightAware ADS-B
12:38AM 51.6997 -4.6820 99° East 464 534 34,000 -1,200 Descending FlightAware ADS-B
12:38AM 51.6939 -4.6225 99° East 461 531 33,700 -1,200 Descending FlightAware ADS-B
12:38AM 51.6911 -4.5930 99° East 461 531 33,500 -1,320 Descending FlightAware ADS-B
12:39AM 51.6876 -4.5567 99° East 461 531 33,300 -960 Descending FlightAware ADS-B
12:39AM 51.6846 -4.5258 99° East 461 531 33,200 -960 Descending FlightAware ADS-B
12:39AM 51.6813 -4.4916 99° East 461 531 33,000 -420 Descending FlightAware ADS-B
12:39AM 51.6738 -4.4158 99° East 460 529 33,000  Level FlightAware ADS-B
12:40AM 51.6701 -4.3790 99° East 459 528 33,000  Level FlightAware ADS-B
12:40AM 51.6676 -4.3538 99° East 460 529 33,000  Level FlightAware ADS-B (EGBS)
12:40AM 51.6673 -4.3504 98° East 459 528 33,000  Level FlightAware ADS-B (EGDX / DGX)
12:40AM 51.6598 -4.2772 99° East 460 529 33,000  Level FlightAware ADS-B
12:40AM 51.6577 -4.2573 99° East 459 528 33,000  Level FlightAware ADS-B
12:40AM 51.6563 -4.2435 99° East 459 528 33,000  Level FlightAware ADS-B
12:40AM 51.6526 -4.2075 99° East 460 529 33,000  Level FlightAware ADS-B
12:40AM 51.6507 -4.1885 99° East 459 528 33,000  Level FlightAware ADS-B
12:41AM 51.6470 -4.1522 99° East 459 528 33,000  Level FlightAware ADS-B
12:41AM 51.6457 -4.1400 99° East 458 527 33,000 -720 Level FlightAware ADS-B
12:41AM 51.6439 -4.1216 99° East 458 527 32,900 -600 Descending FlightAware ADS-B
12:41AM 51.6423 -4.1065 100° East 458 527 32,900 -1,140 Level FlightAware ADS-B
12:41AM 51.6418 -4.1011 100° East 459 528 32,700 -2,040 Descending FlightAware ADS-B (EGDX / DGX)
12:41AM 51.6389 -4.0732 99° East 458 527 32,600 -1,320 Descending FlightAware ADS-B
12:41AM 51.6353 -4.0385 99° East 459 528 32,400 -1,380 Descending FlightAware ADS-B
12:42AM 51.6283 -3.9720 100° East 461 531 31,900 -1,740 Descending FlightAware ADS-B
12:42AM 51.6254 -3.9449 100° East 461 531 31,600 -1,440 Descending FlightAware ADS-B (EGDX / DGX)
12:42AM 51.6145 -3.8416 100° East 464 534 31,000 -1,020 Descending FlightAware UK
12:42AM 51.6142 -3.8406 100° East 465 535 31,100 -960 Climbing FlightAware ADS-B (EGFH / SWS)
12:42AM 51.6094 -3.7964 100° East 465 535 30,800 -1,380 Descending FlightAware ADS-B
12:43AM 51.6030 -3.7373 100° East 466 536 30,400 -1,320 Descending FlightAware ADS-B (EGFH / SWS)
12:43AM 51.5907 -3.6251 100° East 467 537 29,700 -1,380 Descending FlightAware ADS-B (EGDM)
12:43AM 51.5871 -3.5913 100° East 467 537 29,400 -1,260 Descending FlightAware ADS-B (EGDX / DGX)
12:44AM 51.5820 -3.5433 100° East 466 536 29,200 -1,200 Descending FlightAware ADS-B
12:44AM 51.5707 -3.4391 100° East 464 534 28,600 -1,140 Descending FlightAware ADS-B (EGBS)
12:44AM 51.5682 -3.4171 100° East 465 535 28,500 -960 Descending FlightAware ADS-B
12:45AM 51.5616 -3.3563 100° East 462 532 28,200 -1,140 Descending FlightAware ADS-B
12:45AM 51.5604 -3.3431 98° East 462 532 28,100 -1,140 Descending FlightAware ADS-B (EGFH / SWS)
12:45AM 51.5573 -3.2642 94° East 453 521 27,700 -1,020 Descending FlightAware ADS-B
12:45AM 51.5567 -3.2378 92° East 451 519 27,600 -780 Descending FlightAware ADS-B (EGFH / SWS)
12:46AM 51.5549 -3.1629 92° East 443 510 27,300 -780 Descending FlightAware ADS-B
12:46AM 51.5542 -3.1368 92° East 440 506 27,200 -900 Descending FlightAware ADS-B (EGBS)
12:46AM 51.5521 -3.0532 92° East 427 491 26,800 -900 Descending FlightAware ADS-B
12:46AM 51.5519 -3.0428 92° East 421 484 26,700 -1,080 Descending FlightAware ADS-B (EGBS)
12:46AM 51.5511 -2.9997 92° East 415 478 26,500 -1,920 Descending FlightAware ADS-B
12:47AM 51.5505 -2.9694 92° East 412 474 26,100 -2,340 Descending FlightAware ADS-B
12:47AM 51.5502 -2.9591 92° East 412 474 26,000 -2,100 Descending FlightAware ADS-B
12:47AM 51.5491 -2.9080 92° East 410 472 25,400 -2,160 Descending FlightAware ADS-B
12:47AM 51.5481 -2.8583 92° East 410 472 24,800 -2,220 Descending FlightAware ADS-B
12:47AM 51.5478 -2.8408 92° East 408 470 24,600 -2,040 Descending FlightAware ADS-B
12:47AM 51.5470 -2.8020 92° East 406 467 24,200 -2,040 Descending FlightAware ADS-B
12:48AM 51.5467 -2.7792 91° East 405 466 23,900 -2,340 Descending FlightAware ADS-B
12:48AM 51.5463 -2.7627 92° East 404 465 23,700 -2,520 Descending FlightAware ADS-B
12:48AM 51.5466 -2.7773 272° West 405 466 23,400 -1,560 Descending FlightAware ADS-B
12:48AM 51.5446 -2.6733 92° East 396 456 22,900 -1,440 Descending FlightAware ADS-B
12:48AM 51.5442 -2.6549 92° East 395 455 22,700 -2,220 Descending FlightAware ADS-B (EGBS)
12:49AM 51.5428 -2.5838 92° East 393 452 21,800 -2,340 Descending FlightAware ADS-B
12:49AM 51.5428 -2.5784 90° East 392 451 21,700 -1,740 Descending FlightAware ADS-B (EGDM)
12:49AM 51.5433 -2.5651 87° East 389 448 21,600 -1,680 Descending FlightAware ADS-B
12:49AM 51.5450 -2.5479 81° East 386 444 21,400 -1,800 Descending FlightAware ADS-B (EGDM)
12:49AM 51.5533 -2.4810 79° East 382 440 20,700 -1,920 Descending FlightAware ADS-B
12:49AM 51.5550 -2.4664 79° East 380 437 20,500 -1,860 Descending FlightAware ADS-B
12:50AM 51.5437 -2.6307 264° West 394 453 20,300 -1,740 Descending FlightAware ADS-B (EGGP / LPL)
12:50AM 51.5588 -2.4332 83° East 381 438 20,100 -1,800 Descending FlightAware ADS-B (EGDX / DGX)
12:50AM 51.5625 -2.3975 80° East 379 436 19,800 -1,500 Descending FlightAware ADS-B
12:50AM 51.5629 -2.3945 79° East 378 435 19,800 -1,740 Level FlightAware ADS-B
12:50AM 51.5702 -2.3181 81° East 380 437 19,000 -1,740 Descending FlightAware ADS-B
12:50AM 51.5714 -2.3053 81° East 381 438 18,900 -1,560 Descending FlightAware ADS-B
12:51AM 51.5776 -2.2343 82° East 379 436 18,200 -1,800 Descending FlightAware ADS-B
12:51AM 51.5787 -2.2218 82° East 378 435 18,000 -1,800 Descending FlightAware ADS-B
12:51AM 51.5851 -2.1486 82° East 377 434 17,300 -1,560 Descending FlightAware ADS-B
12:51AM 51.5859 -2.1386 82° East 377 434 17,200 -1,620 Descending FlightAware ADS-B
12:52AM 51.5922 -2.0657 82° East 374 430 16,500 -1,620 Descending FlightAware ADS-B
12:52AM 51.5932 -2.0547 81° East 373 429 16,400 -1,740 Descending FlightAware ADS-B
12:52AM 51.5941 -2.0454 82° East 371 427 16,300 -2,040 Descending FlightAware ADS-B
12:52AM 51.5914 -2.0753 262° West 374 430 16,200 -1,860 Descending FlightAware ADS-B
12:52AM 51.6000 -1.9835 81° East 369 425 15,600 -1,800 Descending FlightAware ADS-B
12:52AM 51.6026 -1.9580 81° East 369 425 15,300 -1,740 Descending FlightAware ADS-B (EGDM)
12:53AM 51.6057 -1.9260 81° East 366 421 15,000 -1,680 Descending FlightAware ADS-B
12:53AM 51.6077 -1.9047 81° East 367 422 14,800 -1,560 Descending FlightAware ADS-B
12:53AM 51.6133 -1.8441 81° East 366 421 14,200 -1,380 Descending FlightAware ADS-B
12:53AM 51.6153 -1.8225 82° East 366 421 14,100 -420 Descending FlightAware ADS-B
12:54AM 51.6212 -1.7593 81° East 351 404 14,000 -240 Descending FlightAware ADS-B (EGDM)
12:54AM 51.6227 -1.7428 82° East 346 398 14,000  Level FlightAware ADS-B
12:54AM 51.6295 -1.6684 82° East 316 364 14,000  Level FlightAware ADS-B
12:54AM 51.6300 -1.6631 82° East 312 359 14,000  Level FlightAware ADS-B (EGDM)
12:55AM 51.6321 -1.6396 82° East 303 349 14,000  Level FlightAware ADS-B
12:55AM 51.6335 -1.6235 82° East 299 344 14,000  Level FlightAware ADS-B
12:55AM 51.6356 -1.6015 81° East 289 333 14,000  Level FlightAware ADS-B
12:55AM 51.6400 -1.5532 82° East 283 326 14,000  Level FlightAware ADS-B
12:55AM 51.6413 -1.5385 82° East 283 326 14,000  Level FlightAware ADS-B
12:55AM 51.6406 -1.5454 261° West 282 325 14,000  Level FlightAware ADS-B (EGWE)
12:56AM 51.6468 -1.4762 82° East 280 322 14,000 -420 Level FlightAware ADS-B
12:56AM 51.6483 -1.4606 81° East 280 322 13,800 -1,440 Descending FlightAware ADS-B
12:56AM 51.6518 -1.4209 82° East 279 321 13,400 -1,140 Descending FlightAware ADS-B
12:56AM 51.6525 -1.4137 81° East 281 323 13,400 -1,140 Level FlightAware ADS-B
12:56AM 51.6537 -1.3995 82° East 280 322 13,200 -1,440 Descending FlightAware ADS-B
12:57AM 51.6556 -1.3780 82° East 279 321 13,000 -1,080 Descending FlightAware ADS-B (EGWE)
12:57AM 51.6580 -1.3509 82° East 280 322 12,800 -1,200 Descending FlightAware ADS-B
12:57AM 51.6611 -1.3173 82° East 279 321 12,400 -1,200 Descending FlightAware ADS-B
12:57AM 51.6636 -1.2891 82° East 277 319 12,200 -960 Descending FlightAware ADS-B
12:58AM 51.6667 -1.2523 82° East 274 315 11,900 -1,020 Descending FlightAware ADS-B (EGDM)
12:58AM 51.6689 -1.2282 82° East 273 314 11,700 -1,200 Descending FlightAware ADS-B
12:58AM 51.6625 -1.3009 262° West 277 319 11,300 -1,200 Descending FlightAware ADS-B (EGWE)
12:58AM 51.6741 -1.1671 82° East 273 314 11,100 -1,200 Descending FlightAware ADS-B
12:59AM 51.6773 -1.1304 82° East 274 315 10,700 -1,260 Descending FlightAware ADS-B (EGDM)
12:59AM 51.6791 -1.1087 82° East 273 314 10,500 -1,200 Descending FlightAware ADS-B
12:59AM 51.6826 -1.0704 82° East 273 314 10,100 -1,200 Descending FlightAware ADS-B
12:59AM 51.6852 -1.0396 82° East 272 313 9,800 -1,380 Descending FlightAware ADS-B
12:59AM 51.6841 -1.0528 262° West 272 313 9,700 -1,140 Descending FlightAware ADS-B (EGWE)
01:00AM 51.6879 -1.0080 82° East 269 310 9,500 -840 Descending FlightAware ADS-B
01:00AM 51.6841 -1.0528 262° West 269 310 9,400 -840 Descending FlightAware ADS-B (EGWE)
01:00AM 51.6905 -0.9782 82° East 267 307 9,300 -1,200 Descending FlightAware ADS-B
01:00AM 51.6918 -0.9630 82° East 266 306 9,100 -960 Descending FlightAware ADS-B
01:00AM 51.6928 -0.9520 82° East 265 305 9,100 -420 Level FlightAware ADS-B
01:00AM 51.6945 -0.9316 82° East 263 303 9,000 -420 Descending FlightAware ADS-B (EGDM)
01:00AM 51.6952 -0.9227 83° East 263 303 9,000  Level FlightAware ADS-B
01:01AM 51.6969 -0.9026 82° East 263 303 9,000  Level FlightAware ADS-B
01:01AM 51.6977 -0.8929 83° East 263 303 9,000  Level FlightAware ADS-B
01:01AM 51.6993 -0.8741 82° East 263 303 9,000  Level FlightAware ADS-B (EGWE)
01:01AM 51.7002 -0.8636 82° East 263 303 9,000  Level FlightAware ADS-B
01:01AM 51.7022 -0.8397 82° East 264 304 9,000  Level FlightAware ADS-B
01:01AM 51.7026 -0.8340 83° East 264 304 9,000  Level FlightAware ADS-B
01:01AM 51.7051 -0.8045 82° East 264 304 9,000  Level FlightAware ADS-B
01:02AM 51.7076 -0.7750 82° East 263 303 9,000  Level FlightAware ADS-B
01:02AM 51.7086 -0.7622 83° East 263 303 9,000  Level FlightAware ADS-B
01:02AM 51.7100 -0.7451 83° East 263 303 9,000  Level FlightAware ADS-B
01:02AM 51.7125 -0.7164 82° East 263 303 9,000  Level FlightAware ADS-B
01:02AM 51.7138 -0.7005 83° East 262 302 9,000  Level FlightAware ADS-B
01:02AM 51.7149 -0.6868 82° East 264 304 9,000  Level FlightAware ADS-B
01:03AM 51.7165 -0.6668 83° East 264 304 9,000  Level FlightAware ADS-B
01:03AM 51.7170 -0.6609 82° East 265 305 9,000  Level FlightAware ADS-B
01:03AM 51.7191 -0.6365 82° East 265 305 9,000  Level FlightAware ADS-B
01:03AM 51.7200 -0.6256 82° East 264 304 9,000  Level FlightAware ADS-B
01:03AM 51.7215 -0.6068 83° East 264 304 9,000  Level FlightAware ADS-B
01:03AM 51.7233 -0.5853 82° East 265 305 9,000  Level FlightAware ADS-B
01:03AM 51.7240 -0.5761 83° East 265 305 9,000  Level FlightAware ADS-B
01:03AM 51.7249 -0.5644 83° East 265 305 9,000  Level FlightAware ADS-B
01:04AM 51.7250 -0.5582 88° East 265 305 9,000  Level FlightAware ADS-B
01:04AM 51.7247 -0.5502 93° East 265 305 9,000  Level FlightAware ADS-B
01:04AM 51.7237 -0.5428 102° East 265 305 9,000  Level FlightAware ADS-B
01:04AM 51.7234 -0.5409 107° East 265 305 9,000  Level FlightAware ADS-B
01:04AM 51.7221 -0.5355 111° Southeast 265 305 9,000  Level FlightAware ADS-B
01:04AM 51.7200 -0.5293 119° Southeast 265 305 9,000  Level FlightAware ADS-B
01:04AM 51.7179 -0.5242 124° Southeast 265 305 9,000  Level FlightAware ADS-B
01:04AM 51.7150 -0.5186 130° Southeast 264 304 9,000  Level FlightAware ADS-B
01:04AM 51.7116 -0.5135 137° Southeast 264 304 9,000  Level FlightAware ADS-B
01:04AM 51.7095 -0.5109 142° Southeast 263 303 9,000  Level FlightAware ADS-B
01:04AM 51.7047 -0.5064 150° Southeast 263 303 9,000  Level FlightAware ADS-B
01:04AM 51.7001 -0.5033 158° South 262 302 9,000  Level FlightAware ADS-B
01:04AM 51.6962 -0.5017 165° South 260 299 9,000  Level FlightAware ADS-B
01:04AM 51.6950 -0.5013 170° South 260 299 9,000  Level FlightAware ADS-B
01:04AM 51.6914 -0.5006 173° South 260 299 9,000  Level FlightAware ADS-B
01:04AM 51.6876 -0.5005 179° South 258 297 9,000  Level FlightAware ADS-B
01:04AM 51.6832 -0.5013 186° South 257 296 9,000  Level FlightAware ADS-B
01:04AM 51.6783 -0.5031 193° South 256 295 9,000  Level FlightAware ADS-B
01:05AM 51.6730 -0.5065 202° Southwest 254 292 9,000  Level FlightAware ADS-B
01:05AM 51.6696 -0.5096 209° Southwest 251 289 9,000  Level FlightAware ADS-B
01:05AM 51.6666 -0.5129 215° Southwest 250 288 9,000  Level FlightAware ADS-B
01:05AM 51.6633 -0.5178 222° Southwest 248 285 9,000  Level FlightAware ADS-B
01:05AM 51.6604 -0.5232 229° Southwest 247 284 9,000  Level FlightAware ADS-B
01:05AM 51.6584 -0.5279 235° Southwest 245 282 9,000  Level FlightAware ADS-B
01:05AM 51.6573 -0.5311 240° Southwest 244 281 9,000  Level FlightAware ADS-B
01:05AM 51.6548 -0.5404 247° West 244 281 9,000  Level FlightAware ADS-B
01:05AM 51.6537 -0.5472 255° West 243 280 9,000  Level FlightAware ADS-B
01:05AM 51.6534 -0.5501 261° West 243 280 9,000  Level FlightAware ADS-B
01:05AM 51.6533 -0.5530 266° West 242 278 9,000  Level FlightAware ADS-B
01:05AM 51.6532 -0.5587 268° West 241 277 9,000  Level FlightAware ADS-B
01:05AM 51.6536 -0.5646 276° West 242 278 9,000  Level FlightAware ADS-B
01:05AM 51.6540 -0.5680 280° West 241 277 9,000  Level FlightAware ADS-B
01:05AM 51.6547 -0.5723 285° West 242 278 9,000  Level FlightAware ADS-B
01:05AM 51.6561 -0.5779 292° West 242 278 9,000  Level FlightAware ADS-B
01:05AM 51.6579 -0.5834 298° West 242 278 9,000  Level FlightAware ADS-B
01:05AM 51.6582 -0.5843 301° West 243 280 9,000  Level FlightAware ADS-B
01:05AM 51.6600 -0.5882 306° West 244 281 9,000  Level FlightAware ADS-B
01:05AM 51.6622 -0.5923 311° West 245 282 9,000 -780 Level FlightAware ADS-B
01:06AM 51.6658 -0.5977 317° Northwest 248 285 8,900 -780 Descending FlightAware ADS-B
01:06AM 51.6686 -0.6010 324° Northwest 250 288 8,900 -1,020 Level FlightAware ADS-B
01:06AM 51.6720 -0.6040 331° Northwest 254 292 8,800 -1,020 Descending FlightAware ADS-B
01:06AM 51.6737 -0.6052 335° Northwest 255 293 8,800  Level FlightAware ADS-B
01:06AM 51.6760 -0.6067 339° North 256 295 8,800 -1,200 Level FlightAware ADS-B
01:06AM 51.6806 -0.6087 345° North 258 297 8,700 -1,500 Descending FlightAware ADS-B
01:06AM 51.6863 -0.6098 353° North 259 298 8,600 -1,200 Descending FlightAware ADS-B
01:06AM 51.6863 -0.6098 180° South 259 298 8,600 -2,040 Level FlightAware ADS-B
01:06AM 51.6900 -0.6097 North 260 299 8,500 -1,200 Descending FlightAware ADS-B
01:06AM 51.6935 -0.6091 North 260 299 8,500 -900 Level FlightAware ADS-B
01:06AM 51.6971 -0.6078 12° North 261 300 8,400 -1,200 Descending FlightAware ADS-B
01:06AM 51.6983 -0.6072 17° North 260 299 8,400  Level FlightAware ADS-B
01:06AM 51.7012 -0.6055 20° North 261 300 8,400  Level FlightAware ADS-B
01:06AM 51.7049 -0.6027 25° Northeast 262 302 8,400 -780 Level FlightAware ADS-B
01:06AM 51.7093 -0.5980 34° Northeast 261 300 8,300 -1,200 Descending FlightAware ADS-B
01:06AM 51.7084 -0.5991 215° Southwest 261 300 8,300  Level FlightAware ADS-B
01:06AM 51.7123 -0.5939 39° Northeast 260 299 8,300 -900 Level FlightAware ADS-B
01:06AM 51.7163 -0.5866 49° Northeast 260 299 8,200 -1,020 Descending FlightAware ADS-B
01:06AM 51.7167 -0.5856 53° Northeast 260 299 8,200  Level FlightAware ADS-B (EGWE)
01:06AM 51.7184 -0.5816 56° Northeast 259 298 8,200 -1,020 Level FlightAware ADS-B
01:06AM 51.7204 -0.5754 62° Northeast 259 298 8,100 -1,740 Descending FlightAware ADS-B
01:07AM 51.7218 -0.5695 69° East 259 298 8,000 -1,020 Descending FlightAware ADS-B
01:07AM 51.7226 -0.5649 74° East 258 297 8,000  Level FlightAware ADS-B
01:07AM 51.7228 -0.5629 81° East 258 297 8,000  Level FlightAware ADS-B
01:07AM 51.7233 -0.5569 82° East 260 299 8,000  Level FlightAware ADS-B
01:07AM 51.7234 -0.5469 89° East 260 299 8,000  Level FlightAware ADS-B
01:07AM 51.7233 -0.5459 99° East 260 299 8,000  Level FlightAware ADS-B
01:07AM 51.7217 -0.5337 102° East 261 300 8,000  Level FlightAware ADS-B
01:07AM 51.7200 -0.5268 112° Southeast 262 302 8,000  Level FlightAware ADS-B
01:07AM 51.7184 -0.5215 116° Southeast 261 300 8,000  Level FlightAware ADS-B
01:07AM 51.7163 -0.5165 124° Southeast 262 302 8,000 -900 Level FlightAware ADS-B
01:07AM 51.7146 -0.5127 126° Southeast 263 303 7,900 -1,020 Descending FlightAware ADS-B
01:07AM 51.7118 -0.5078 132° Southeast 264 304 7,900 -1,020 Level FlightAware ADS-B
01:07AM 51.7079 -0.5025 140° Southeast 265 305 7,800 -1,500 Descending FlightAware ADS-B
01:07AM 51.7032 -0.4978 148° Southeast 265 305 7,700 -1,740 Descending FlightAware ADS-B
01:07AM 51.7000 -0.4953 154° Southeast 264 304 7,600 -1,200 Descending FlightAware ADS-B
01:07AM 51.6931 -0.4907 158° South 262 302 7,500 -960 Descending FlightAware ADS-B
01:07AM 51.6862 -0.4868 160° South 260 299 7,400 -840 Descending FlightAware ADS-B
01:08AM 51.6757 -0.4810 161° South 259 298 7,300 -900 Descending FlightAware ADS-B
01:08AM 51.6619 -0.4732 161° South 258 297 7,100 -840 Descending FlightAware ADS-B
01:08AM 51.6592 -0.4717 161° South 258 297 7,100 -420 Level FlightAware ADS-B
01:08AM 51.6447 -0.4634 160° South 256 295 7,000 -360 Descending FlightAware ADS-B
01:08AM 51.6371 -0.4587 159° South 255 293 7,000  Level FlightAware ADS-B
01:08AM 51.6381 -0.4594 336° Northwest 255 293 7,000  Level FlightAware ADS-B
01:08AM 51.6338 -0.4562 156° South 255 293 7,000  Level FlightAware ADS-B
01:08AM 51.6296 -0.4522 149° Southeast 256 295 7,000  Level FlightAware ADS-B
01:08AM 51.6256 -0.4472 142° Southeast 258 297 7,000  Level FlightAware ADS-B
01:08AM 51.6251 -0.4464 132° Southeast 259 298 7,000  Level FlightAware ADS-B
01:08AM 51.6225 -0.4420 134° Southeast 259 298 7,000  Level FlightAware ADS-B
01:09AM 51.6201 -0.4371 128° Southeast 260 299 7,000  Level FlightAware ADS-B
01:09AM 51.6182 -0.4320 121° Southeast 260 299 7,000  Level FlightAware ADS-B
01:09AM 51.6152 -0.4212 114° Southeast 261 300 7,000  Level FlightAware ADS-B
01:09AM 51.6145 -0.4173 106° East 261 300 7,000  Level FlightAware ADS-B
01:09AM 51.6122 -0.3988 101° East 261 300 7,000  Level FlightAware ADS-B
01:09AM 51.6102 -0.3769 98° East 259 298 7,000  Level FlightAware ADS-B
01:09AM 51.6101 -0.3759 99° East 259 298 7,000 -480 Level FlightAware ADS-B (EGWE)
01:09AM 51.6080 -0.3525 98° East 259 298 6,900 -360 Descending FlightAware ADS-B
01:09AM 51.6073 -0.3447 99° East 259 298 6,900 -420 Level FlightAware ADS-B
01:10AM 51.6052 -0.3224 98° East 259 298 6,800 -660 Descending FlightAware ADS-B
01:10AM 51.6036 -0.3048 98° East 259 298 6,700 -780 Descending FlightAware ADS-B
01:10AM 51.6024 -0.2923 99° East 259 298 6,600 -600 Descending FlightAware ADS-B
01:10AM 51.5999 -0.2661 99° East 258 297 6,500 -420 Descending FlightAware ADS-B
01:10AM 51.5996 -0.2624 98° East 258 297 6,500 -660 Level FlightAware ADS-B
01:10AM 51.5967 -0.2295 98° East 260 299 6,300 -720 Descending FlightAware ADS-B
01:10AM 51.5973 -0.2359 278° West 260 299 6,300 -420 Level FlightAware ADS-B
01:11AM 51.5941 -0.2005 98° East 256 295 6,200 -600 Descending FlightAware ADS-B
01:11AM 51.5928 -0.1862 98° East 253 291 6,100 -720 Descending FlightAware ADS-B
01:11AM 51.5912 -0.1702 99° East 249 287 6,000 -900 Descending FlightAware ADS-B
01:11AM 51.5893 -0.1501 99° East 244 281 5,800 -960 Descending FlightAware ADS-B
01:11AM 51.5889 -0.1466 100° East 243 280 5,800 -420 Level FlightAware ADS-B
01:11AM 51.5864 -0.1236 100° East 238 274 5,700 -480 Descending FlightAware ADS-B
01:11AM 51.5868 -0.1262 284° West 238 274 5,700 -900 Level FlightAware ADS-B (EGWE)
01:11AM 51.5846 -0.1125 104° East 235 270 5,600 -720 Descending FlightAware ADS-B
01:11AM 51.5831 -0.1064 112° Southeast 232 267 5,600  Level FlightAware ADS-B
01:12AM 51.5812 -0.0995 114° Southeast 232 267 5,600 -600 Level FlightAware ADS-B
01:12AM 51.5784 -0.0897 115° Southeast 231 266 5,500 -1,020 Descending FlightAware ADS-B
01:12AM 51.5758 -0.0806 115° Southeast 229 264 5,400 -1,020 Descending FlightAware ADS-B
01:12AM 51.5727 -0.0717 119° Southeast 226 260 5,300 -540 Descending FlightAware ADS-B
01:12AM 51.5694 -0.0638 124° Southeast 223 257 5,300  Level FlightAware ADS-B
01:12AM 51.5673 -0.0587 124° Southeast 221 254 5,300 -900 Level FlightAware ADS-B
01:12AM 51.5651 -0.0532 122° Southeast 220 253 5,200 -600 Descending FlightAware ADS-B
01:12AM 51.5618 -0.0449 123° Southeast 216 249 5,200 -480 Level FlightAware ADS-B
01:12AM 51.5587 -0.0385 128° Southeast 213 245 5,100 -780 Descending FlightAware ADS-B
01:12AM 51.5564 -0.0350 136° Southeast 213 245 5,100 -1,200 Level FlightAware ADS-B
01:12AM 51.5539 -0.0319 143° Southeast 212 244 5,000 -780 Descending FlightAware ADS-B
01:12AM 51.5498 -0.0286 153° Southeast 213 245 5,000 -600 Level FlightAware ADS-B
01:13AM 51.5450 -0.0266 165° South 208 239 4,900 -1,200 Descending FlightAware ADS-B
01:13AM 51.5420 -0.0259 172° South 206 237 4,800 -900 Descending FlightAware ADS-B
01:13AM 51.5381 -0.0256 177° South 205 236 4,800  Level FlightAware ADS-B
01:13AM 51.5339 -0.0259 183° South 203 234 4,800  Level FlightAware ADS-B
01:13AM 51.5311 -0.0266 189° South 202 232 4,800 -780 Level FlightAware ADS-B
01:13AM 51.5269 -0.0284 194° South 198 228 4,700 -720 Descending FlightAware ADS-B
01:13AM 51.5237 -0.0304 201° Southwest 196 226 4,700  Level FlightAware ADS-B
01:13AM 51.5229 -0.0310 206° Southwest 195 224 4,700  Level FlightAware ADS-B
01:13AM 51.5176 -0.0367 214° Southwest 195 224 4,700  Level FlightAware ADS-B
01:13AM 51.5146 -0.0419 227° Southwest 194 223 4,700  Level FlightAware ADS-B
01:13AM 51.5127 -0.0457 231° Southwest 192 221 4,700  Level FlightAware ADS-B
01:13AM 51.5109 -0.0496 234° Southwest 189 217 4,700 -420 Level FlightAware ADS-B
01:13AM 51.5051 -0.0635 236° Southwest 189 217 4,600 -300 Descending FlightAware ADS-B
01:14AM 51.5023 -0.0710 239° Southwest 188 216 4,600 -420 Level FlightAware ADS-B
01:14AM 51.4984 -0.0818 240° Southwest 190 219 4,500 -900 Descending FlightAware ADS-B
01:14AM 51.4950 -0.0913 240° Southwest 190 219 4,400 -960 Descending FlightAware ADS-B
01:14AM 51.4937 -0.0952 241° Southwest 189 217 4,300 -1,140 Descending FlightAware ADS-B
01:14AM 51.4887 -0.1096 241° Southwest 188 216 4,100 -960 Descending FlightAware ADS-B
01:14AM 51.4845 -0.1218 241° Southwest 189 217 4,000 -960 Descending FlightAware ADS-B
01:14AM 51.4833 -0.1257 244° Southwest 190 219 3,900 -1,500 Descending FlightAware ADS-B
01:14AM 51.4817 -0.1312 245° Southwest 190 219 3,800 -1,500 Descending FlightAware ADS-B
01:14AM 51.4803 -0.1370 249° West 189 217 3,700 -1,200 Descending FlightAware ADS-B
01:15AM 51.4790 -0.1444 254° West 188 216 3,600 -720 Descending FlightAware ADS-B
01:15AM 51.4786 -0.1468 257° West 187 215 3,600 -1,500 Level FlightAware ADS-B
01:15AM 51.4783 -0.1497 259° West 186 214 3,500 -2,400 Descending FlightAware ADS-B
01:15AM 51.4777 -0.1562 262° West 186 214 3,400 -1,080 Descending FlightAware ADS-B
01:15AM 51.4771 -0.1736 267° West 184 212 3,200 -900 Descending FlightAware ADS-B
01:15AM 51.4771 -0.1731 91° East 183 211 3,200 -1,020 Level FlightAware ADS-B
01:15AM 51.4772 -0.1812 271° West 182 209 3,100 -1,440 Descending FlightAware ADS-B
01:15AM 51.4776 -0.1926 273° West 180 207 2,900 -840 Descending FlightAware ADS-B
01:15AM 51.4780 -0.2009 274° West 181 208 2,900 -540 Level FlightAware ADS-B
01:15AM 51.4783 -0.2082 274° West 181 208 2,800 -1,020 Descending FlightAware ADS-B
01:16AM 51.4783 -0.2251 270° West 183 211 2,600 -1,200 Descending FlightAware ADS-B
01:16AM 51.4783 -0.2282 269° West 183 211 2,500 -1,200 Descending FlightAware ADS-B
01:16AM 51.4781 -0.2529 269° West 183 211 2,200 -960 Descending FlightAware ADS-B
01:16AM 51.4782 -0.2543 274° West 178 205 2,200 -840 Level FlightAware ADS-B
01:16AM 51.4781 -0.2800 270° West 166 191 1,900 -900 Descending FlightAware ADS-B
01:17AM 51.4779 -0.3037 269° West 159 183 1,600 -960 Descending FlightAware ADS-B
01:17AM 51.4781 -0.3257 271° West 159 183 1,300 -780 Descending FlightAware ADS-B
01:17AM 51.4779 -0.3491 269° West 149 171 1,100 -720 Descending FlightAware ADS-B
01:18AM 51.4779 -0.3711 270° West 142 163 800 -900 Descending FlightAware ADS-B
01:18AM 51.4779 -0.3928 270° West 139 160 500 -840 Descending FlightAware ADS-B
01:18AM 51.4780 -0.4250 270° West 141 162 100 -780 Descending FlightAware
01:18AM 51.4777 -0.4272 270° West 146 168 100  Level FlightAware UK
01:19AM 51.4770 -0.4600 267° West 143 165 -180 Descending FlightAware